sensor_id;sensor_type;location;lat;lon;timestamp;temperature;humidity
50162;DHT22;36061;48.116;11.612;2023-06-10T00:00:51;18.50;99.90
50162;DHT22;36061;48.116;11.612;2023-06-10T00:03:19;18.50;99.90
50162;DHT22;36061;48.116;11.612;2023-06-10T00:05:49;18.50;99.90
50162;DHT22;36061;48.116;11.612;2023-06-10T00:08:16;18.40;99.90
50162;DHT22;36061;48.116;11.612;2023-06-10T00:10:45;18.40;99.90
50162;DHT22;36061;48.116;11.612;2023-06-10T00:13:12;18.40;99.90
50162;DHT22;36061;48.116;11.612;2023-06-10T00:15:41;18.40;99.90
50162;DHT22;36061;48.116;11.612;2023-06-10T00:18:08;18.30;99.90
50162;DHT22;36061;48.116;11.612;2023-06-10T00:20:36;18.30;99.90
50162;DHT22;36061;48.116;11.612;2023-06-10T00:23:03;18.30;99.90
50162;DHT22;36061;48.116;11.612;2023-06-10T00:25:32;18.30;99.90
50162;DHT22;36061;48.116;11.612;2023-06-10T00:27:59;18.30;99.90
50162;DHT22;36061;48.116;11.612;2023-06-10T00:30:28;18.20;99.90
50162;DHT22;36061;48.116;11.612;2023-06-10T00:32:57;18.20;99.90
50162;DHT22;36061;48.116;11.612;2023-06-10T00:35:26;18.20;99.90
50162;DHT22;36061;48.116;11.612;2023-06-10T00:37:53;18.10;99.90
50162;DHT22;36061;48.116;11.612;2023-06-10T00:40:20;18.10;99.90
50162;DHT22;36061;48.116;11.612;2023-06-10T00:42:47;18.10;99.90
50162;DHT22;36061;48.116;11.612;2023-06-10T00:45:14;18.00;99.90
50162;DHT22;36061;48.116;11.612;2023-06-10T00:47:42;18.00;99.90
50162;DHT22;36061;48.116;11.612;2023-06-10T00:50:10;18.00;99.90
50162;DHT22;36061;48.116;11.612;2023-06-10T00:52:38;17.90;99.90
50162;DHT22;36061;48.116;11.612;2023-06-10T00:55:06;17.90;99.90
50162;DHT22;36061;48.116;11.612;2023-06-10T00:57:33;17.90;99.90
50162;DHT22;36061;48.116;11.612;2023-06-10T01:00:01;17.90;99.90
50162;DHT22;36061;48.116;11.612;2023-06-10T01:02:33;17.80;99.90
50162;DHT22;36061;48.116;11.612;2023-06-10T01:05:00;17.80;99.90
50162;DHT22;36061;48.116;11.612;2023-06-10T01:07:36;17.80;99.90
50162;DHT22;36061;48.116;11.612;2023-06-10T01:10:08;17.80;99.90
50162;DHT22;36061;48.116;11.612;2023-06-10T01:12:39;17.80;99.90
50162;DHT22;36061;48.116;11.612;2023-06-10T01:15:09;17.80;99.90
50162;DHT22;36061;48.116;11.612;2023-06-10T01:17:51;17.80;99.90
50162;DHT22;36061;48.116;11.612;2023-06-10T01:20:19;17.80;99.90
50162;DHT22;36061;48.116;11.612;2023-06-10T01:22:48;17.70;99.90
50162;DHT22;36061;48.116;11.612;2023-06-10T01:25:18;17.70;99.90
50162;DHT22;36061;48.116;11.612;2023-06-10T01:27:48;17.70;99.90
50162;DHT22;36061;48.116;11.612;2023-06-10T01:30:19;17.70;99.90
50162;DHT22;36061;48.116;11.612;2023-06-10T01:32:51;17.60;99.90
50162;DHT22;36061;48.116;11.612;2023-06-10T01:35:21;17.60;99.90
50162;DHT22;36061;48.116;11.612;2023-06-10T01:37:54;17.60;99.90
50162;DHT22;36061;48.116;11.612;2023-06-10T01:40:23;17.60;99.90
50162;DHT22;36061;48.116;11.612;2023-06-10T01:42:50;17.60;99.90
50162;DHT22;36061;48.116;11.612;2023-06-10T01:45:19;17.60;99.90
50162;DHT22;36061;48.116;11.612;2023-06-10T01:47:46;17.50;99.90
50162;DHT22;36061;48.116;11.612;2023-06-10T01:50:13;17.50;99.90
50162;DHT22;36061;48.116;11.612;2023-06-10T01:52:42;17.50;99.90
50162;DHT22;36061;48.116;11.612;2023-06-10T01:55:11;17.50;99.90
50162;DHT22;36061;48.116;11.612;2023-06-10T01:57:40;17.50;99.90
50162;DHT22;36061;48.116;11.612;2023-06-10T02:00:08;17.50;99.90
50162;DHT22;36061;48.116;11.612;2023-06-10T02:02:41;17.50;99.90
50162;DHT22;36061;48.116;11.612;2023-06-10T02:05:09;17.50;99.90
50162;DHT22;36061;48.116;11.612;2023-06-10T02:07:36;17.50;99.90
50162;DHT22;36061;48.116;11.612;2023-06-10T02:10:04;17.50;99.90
50162;DHT22;36061;48.116;11.612;2023-06-10T02:12:33;17.50;99.90
50162;DHT22;36061;48.116;11.612;2023-06-10T02:15:00;17.40;99.90
50162;DHT22;36061;48.116;11.612;2023-06-10T02:17:28;17.50;99.90
50162;DHT22;36061;48.116;11.612;2023-06-10T02:19:56;17.50;99.90
50162;DHT22;36061;48.116;11.612;2023-06-10T02:22:26;17.50;99.90
50162;DHT22;36061;48.116;11.612;2023-06-10T02:24:53;17.50;99.90
50162;DHT22;36061;48.116;11.612;2023-06-10T02:27:20;17.40;99.90
50162;DHT22;36061;48.116;11.612;2023-06-10T02:29:49;17.40;99.90
50162;DHT22;36061;48.116;11.612;2023-06-10T02:32:16;17.40;99.90
50162;DHT22;36061;48.116;11.612;2023-06-10T02:34:44;17.40;99.90
50162;DHT22;36061;48.116;11.612;2023-06-10T02:37:12;17.30;99.90
50162;DHT22;36061;48.116;11.612;2023-06-10T02:39:39;17.30;99.90
50162;DHT22;36061;48.116;11.612;2023-06-10T02:42:10;17.30;99.90
50162;DHT22;36061;48.116;11.612;2023-06-10T02:44:37;17.30;99.90
50162;DHT22;36061;48.116;11.612;2023-06-10T02:47:09;17.30;99.90
50162;DHT22;36061;48.116;11.612;2023-06-10T02:49:37;17.30;99.90
50162;DHT22;36061;48.116;11.612;2023-06-10T02:52:05;17.20;99.90
50162;DHT22;36061;48.116;11.612;2023-06-10T02:54:33;17.20;99.90
50162;DHT22;36061;48.116;11.612;2023-06-10T02:57:02;17.20;99.90
50162;DHT22;36061;48.116;11.612;2023-06-10T02:59:29;17.20;99.90
50162;DHT22;36061;48.116;11.612;2023-06-10T03:01:57;17.20;99.90
50162;DHT22;36061;48.116;11.612;2023-06-10T03:04:27;17.20;99.90
50162;DHT22;36061;48.116;11.612;2023-06-10T03:07:02;17.20;99.90
50162;DHT22;36061;48.116;11.612;2023-06-10T03:09:33;17.20;99.90
50162;DHT22;36061;48.116;11.612;2023-06-10T03:12:01;17.20;99.90
50162;DHT22;36061;48.116;11.612;2023-06-10T03:14:34;17.20;99.90
50162;DHT22;36061;48.116;11.612;2023-06-10T03:17:02;17.10;99.90
50162;DHT22;36061;48.116;11.612;2023-06-10T03:19:32;17.10;99.90
50162;DHT22;36061;48.116;11.612;2023-06-10T03:22:08;17.10;99.90
50162;DHT22;36061;48.116;11.612;2023-06-10T03:24:39;17.10;99.90
50162;DHT22;36061;48.116;11.612;2023-06-10T03:27:09;17.10;99.90
50162;DHT22;36061;48.116;11.612;2023-06-10T03:29:37;17.10;99.90
50162;DHT22;36061;48.116;11.612;2023-06-10T03:32:06;17.00;99.90
50162;DHT22;36061;48.116;11.612;2023-06-10T03:34:36;17.00;99.90
50162;DHT22;36061;48.116;11.612;2023-06-10T03:37:04;17.00;99.90
50162;DHT22;36061;48.116;11.612;2023-06-10T03:39:32;17.00;99.90
50162;DHT22;36061;48.116;11.612;2023-06-10T03:42:01;17.00;99.90
50162;DHT22;36061;48.116;11.612;2023-06-10T03:44:30;17.00;99.90
50162;DHT22;36061;48.116;11.612;2023-06-10T03:46:57;17.00;99.90
50162;DHT22;36061;48.116;11.612;2023-06-10T03:49:26;17.00;99.90
50162;DHT22;36061;48.116;11.612;2023-06-10T03:51:58;17.00;99.90
50162;DHT22;36061;48.116;11.612;2023-06-10T03:54:26;17.00;99.90
50162;DHT22;36061;48.116;11.612;2023-06-10T03:56:53;17.00;99.90
50162;DHT22;36061;48.116;11.612;2023-06-10T03:59:20;17.00;99.90
50162;DHT22;36061;48.116;11.612;2023-06-10T04:01:48;17.00;99.90
50162;DHT22;36061;48.116;11.612;2023-06-10T04:04:15;17.00;99.90
50162;DHT22;36061;48.116;11.612;2023-06-10T04:06:44;17.10;99.90
50162;DHT22;36061;48.116;11.612;2023-06-10T04:09:12;17.10;99.90
50162;DHT22;36061;48.116;11.612;2023-06-10T04:11:40;17.10;99.90
50162;DHT22;36061;48.116;11.612;2023-06-10T04:14:07;17.10;99.90
50162;DHT22;36061;48.116;11.612;2023-06-10T04:16:35;17.10;99.90
50162;DHT22;36061;48.116;11.612;2023-06-10T04:19:03;17.20;99.90
50162;DHT22;36061;48.116;11.612;2023-06-10T04:21:31;17.20;99.90
50162;DHT22;36061;48.116;11.612;2023-06-10T04:23:58;17.20;99.90
50162;DHT22;36061;48.116;11.612;2023-06-10T04:26:27;17.30;99.90
50162;DHT22;36061;48.116;11.612;2023-06-10T04:28:54;17.40;99.90
50162;DHT22;36061;48.116;11.612;2023-06-10T04:31:22;17.40;99.90
50162;DHT22;36061;48.116;11.612;2023-06-10T04:33:50;17.50;99.90
50162;DHT22;36061;48.116;11.612;2023-06-10T04:36:17;17.60;99.90
50162;DHT22;36061;48.116;11.612;2023-06-10T04:38:44;17.60;99.90
50162;DHT22;36061;48.116;11.612;2023-06-10T04:41:12;17.60;99.90
50162;DHT22;36061;48.116;11.612;2023-06-10T04:43:41;17.70;99.90
50162;DHT22;36061;48.116;11.612;2023-06-10T04:46:08;17.70;99.90
50162;DHT22;36061;48.116;11.612;2023-06-10T04:48:37;17.80;99.90
50162;DHT22;36061;48.116;11.612;2023-06-10T04:51:04;17.80;99.90
50162;DHT22;36061;48.116;11.612;2023-06-10T04:53:32;17.90;99.90
50162;DHT22;36061;48.116;11.612;2023-06-10T04:55:59;17.90;99.90
50162;DHT22;36061;48.116;11.612;2023-06-10T04:58:26;18.00;99.90
50162;DHT22;36061;48.116;11.612;2023-06-10T05:00:55;18.10;99.90
50162;DHT22;36061;48.116;11.612;2023-06-10T05:03:22;18.10;99.90
50162;DHT22;36061;48.116;11.612;2023-06-10T05:05:50;18.20;99.90
50162;DHT22;36061;48.116;11.612;2023-06-10T05:08:18;18.30;99.90
50162;DHT22;36061;48.116;11.612;2023-06-10T05:10:45;18.40;99.90
50162;DHT22;36061;48.116;11.612;2023-06-10T05:13:13;18.50;99.90
50162;DHT22;36061;48.116;11.612;2023-06-10T05:15:41;18.60;99.90
50162;DHT22;36061;48.116;11.612;2023-06-10T05:18:18;18.70;99.90
50162;DHT22;36061;48.116;11.612;2023-06-10T05:20:45;18.80;99.90
50162;DHT22;36061;48.116;11.612;2023-06-10T05:23:13;19.00;99.90
50162;DHT22;36061;48.116;11.612;2023-06-10T05:25:40;19.10;99.90
50162;DHT22;36061;48.116;11.612;2023-06-10T05:28:08;19.20;99.90
50162;DHT22;36061;48.116;11.612;2023-06-10T05:30:36;19.30;99.90
50162;DHT22;36061;48.116;11.612;2023-06-10T05:33:09;19.30;99.90
50162;DHT22;36061;48.116;11.612;2023-06-10T05:35:40;19.40;99.90
50162;DHT22;36061;48.116;11.612;2023-06-10T05:38:08;19.50;99.90
50162;DHT22;36061;48.116;11.612;2023-06-10T05:40:35;19.50;99.90
50162;DHT22;36061;48.116;11.612;2023-06-10T05:43:02;19.70;99.90
50162;DHT22;36061;48.116;11.612;2023-06-10T05:45:30;19.80;99.90
50162;DHT22;36061;48.116;11.612;2023-06-10T05:47:57;19.90;99.90
50162;DHT22;36061;48.116;11.612;2023-06-10T05:50:24;20.00;99.90
50162;DHT22;36061;48.116;11.612;2023-06-10T05:52:56;20.00;99.90
50162;DHT22;36061;48.116;11.612;2023-06-10T05:55:23;20.00;99.90
50162;DHT22;36061;48.116;11.612;2023-06-10T05:57:58;20.00;99.90
50162;DHT22;36061;48.116;11.612;2023-06-10T06:00:26;20.00;99.90
50162;DHT22;36061;48.116;11.612;2023-06-10T06:02:54;20.10;99.90
50162;DHT22;36061;48.116;11.612;2023-06-10T06:05:24;20.10;99.90
50162;DHT22;36061;48.116;11.612;2023-06-10T06:07:51;20.10;99.90
50162;DHT22;36061;48.116;11.612;2023-06-10T06:10:20;20.10;99.90
50162;DHT22;36061;48.116;11.612;2023-06-10T06:12:47;20.20;99.90
50162;DHT22;36061;48.116;11.612;2023-06-10T06:15:14;20.20;99.90
50162;DHT22;36061;48.116;11.612;2023-06-10T06:17:41;20.10;99.90
50162;DHT22;36061;48.116;11.612;2023-06-10T06:20:09;20.20;99.90
50162;DHT22;36061;48.116;11.612;2023-06-10T06:22:38;20.30;99.90
50162;DHT22;36061;48.116;11.612;2023-06-10T06:25:06;20.30;99.90
50162;DHT22;36061;48.116;11.612;2023-06-10T06:27:35;20.30;99.90
50162;DHT22;36061;48.116;11.612;2023-06-10T06:30:02;20.20;99.90
50162;DHT22;36061;48.116;11.612;2023-06-10T06:32:31;20.20;99.90
50162;DHT22;36061;48.116;11.612;2023-06-10T06:35:00;20.20;99.90
50162;DHT22;36061;48.116;11.612;2023-06-10T06:37:28;20.10;99.90
50162;DHT22;36061;48.116;11.612;2023-06-10T06:40:12;20.00;99.90
50162;DHT22;36061;48.116;11.612;2023-06-10T06:42:41;19.90;99.90
50162;DHT22;36061;48.116;11.612;2023-06-10T06:45:27;19.80;99.90
50162;DHT22;36061;48.116;11.612;2023-06-10T06:47:54;19.70;99.90
50162;DHT22;36061;48.116;11.612;2023-06-10T06:50:29;19.60;99.90
50162;DHT22;36061;48.116;11.612;2023-06-10T06:52:56;19.40;99.90
50162;DHT22;36061;48.116;11.612;2023-06-10T06:55:23;19.40;99.90
50162;DHT22;36061;48.116;11.612;2023-06-10T06:57:52;19.30;99.90
50162;DHT22;36061;48.116;11.612;2023-06-10T07:00:19;19.30;99.90
50162;DHT22;36061;48.116;11.612;2023-06-10T07:02:46;19.30;99.90
50162;DHT22;36061;48.116;11.612;2023-06-10T07:05:25;19.30;99.90
50162;DHT22;36061;48.116;11.612;2023-06-10T07:07:53;19.30;99.90
50162;DHT22;36061;48.116;11.612;2023-06-10T07:10:21;19.40;99.90
50162;DHT22;36061;48.116;11.612;2023-06-10T07:12:49;19.40;99.90
50162;DHT22;36061;48.116;11.612;2023-06-10T07:15:18;19.50;99.90
50162;DHT22;36061;48.116;11.612;2023-06-10T07:17:47;19.60;99.90
50162;DHT22;36061;48.116;11.612;2023-06-10T07:20:14;19.70;99.90
50162;DHT22;36061;48.116;11.612;2023-06-10T07:22:42;19.80;99.90
50162;DHT22;36061;48.116;11.612;2023-06-10T07:25:09;19.90;99.90
50162;DHT22;36061;48.116;11.612;2023-06-10T07:27:36;19.90;99.90
50162;DHT22;36061;48.116;11.612;2023-06-10T07:30:06;20.00;99.90
50162;DHT22;36061;48.116;11.612;2023-06-10T07:32:35;20.00;99.90
50162;DHT22;36061;48.116;11.612;2023-06-10T07:35:03;20.10;99.90
50162;DHT22;36061;48.116;11.612;2023-06-10T07:37:30;20.10;99.90
50162;DHT22;36061;48.116;11.612;2023-06-10T07:39:57;20.20;99.90
50162;DHT22;36061;48.116;11.612;2023-06-10T07:42:25;20.30;99.90
50162;DHT22;36061;48.116;11.612;2023-06-10T07:44:52;20.40;99.90
50162;DHT22;36061;48.116;11.612;2023-06-10T07:47:19;20.40;99.90
50162;DHT22;36061;48.116;11.612;2023-06-10T07:49:48;20.50;99.90
50162;DHT22;36061;48.116;11.612;2023-06-10T07:52:15;20.60;99.90
50162;DHT22;36061;48.116;11.612;2023-06-10T07:54:42;20.60;99.90
50162;DHT22;36061;48.116;11.612;2023-06-10T07:57:09;20.70;99.90
50162;DHT22;36061;48.116;11.612;2023-06-10T07:59:37;20.70;99.90
50162;DHT22;36061;48.116;11.612;2023-06-10T08:02:05;20.80;99.90
50162;DHT22;36061;48.116;11.612;2023-06-10T08:04:32;20.80;99.90
50162;DHT22;36061;48.116;11.612;2023-06-10T08:07:02;20.80;99.90
50162;DHT22;36061;48.116;11.612;2023-06-10T08:09:29;20.90;99.90
50162;DHT22;36061;48.116;11.612;2023-06-10T08:11:57;20.80;99.90
50162;DHT22;36061;48.116;11.612;2023-06-10T08:14:24;20.90;99.90
50162;DHT22;36061;48.116;11.612;2023-06-10T08:16:51;20.80;99.90
50162;DHT22;36061;48.116;11.612;2023-06-10T08:19:18;20.80;99.90
50162;DHT22;36061;48.116;11.612;2023-06-10T08:21:46;20.80;99.90
50162;DHT22;36061;48.116;11.612;2023-06-10T08:24:14;20.70;99.90
50162;DHT22;36061;48.116;11.612;2023-06-10T08:26:43;20.80;99.90
50162;DHT22;36061;48.116;11.612;2023-06-10T08:29:12;20.80;99.90
50162;DHT22;36061;48.116;11.612;2023-06-10T08:31:41;20.80;99.90
50162;DHT22;36061;48.116;11.612;2023-06-10T08:34:09;20.80;99.90
50162;DHT22;36061;48.116;11.612;2023-06-10T08:36:37;20.80;99.90
50162;DHT22;36061;48.116;11.612;2023-06-10T08:39:04;20.70;99.90
50162;DHT22;36061;48.116;11.612;2023-06-10T08:41:37;20.70;99.90
50162;DHT22;36061;48.116;11.612;2023-06-10T08:44:10;20.80;99.90
50162;DHT22;36061;48.116;11.612;2023-06-10T08:46:42;20.80;99.90
50162;DHT22;36061;48.116;11.612;2023-06-10T08:49:17;20.90;99.90
50162;DHT22;36061;48.116;11.612;2023-06-10T08:51:48;21.00;99.90
50162;DHT22;36061;48.116;11.612;2023-06-10T08:54:20;21.00;99.90
50162;DHT22;36061;48.116;11.612;2023-06-10T08:56:50;21.00;99.90
50162;DHT22;36061;48.116;11.612;2023-06-10T08:59:18;20.90;99.90
50162;DHT22;36061;48.116;11.612;2023-06-10T09:01:47;20.90;99.90
50162;DHT22;36061;48.116;11.612;2023-06-10T09:04:14;20.90;99.90
50162;DHT22;36061;48.116;11.612;2023-06-10T09:06:44;20.90;99.90
50162;DHT22;36061;48.116;11.612;2023-06-10T09:09:12;20.90;99.90
50162;DHT22;36061;48.116;11.612;2023-06-10T09:11:41;21.00;99.90
50162;DHT22;36061;48.116;11.612;2023-06-10T09:14:10;21.10;99.90
50162;DHT22;36061;48.116;11.612;2023-06-10T09:16:38;21.10;99.90
50162;DHT22;36061;48.116;11.612;2023-06-10T09:19:06;21.20;99.90
50162;DHT22;36061;48.116;11.612;2023-06-10T09:21:34;21.30;99.90
50162;DHT22;36061;48.116;11.612;2023-06-10T09:24:02;21.40;99.90
50162;DHT22;36061;48.116;11.612;2023-06-10T09:26:30;21.50;99.90
50162;DHT22;36061;48.116;11.612;2023-06-10T09:29:03;21.50;99.90
50162;DHT22;36061;48.116;11.612;2023-06-10T09:31:35;21.60;99.90
50162;DHT22;36061;48.116;11.612;2023-06-10T09:34:07;21.70;99.90
50162;DHT22;36061;48.116;11.612;2023-06-10T09:36:35;21.70;99.90
50162;DHT22;36061;48.116;11.612;2023-06-10T09:39:03;21.70;99.90
50162;DHT22;36061;48.116;11.612;2023-06-10T09:41:34;21.70;99.90
50162;DHT22;36061;48.116;11.612;2023-06-10T09:44:02;21.70;99.90
50162;DHT22;36061;48.116;11.612;2023-06-10T09:46:37;21.70;99.90
50162;DHT22;36061;48.116;11.612;2023-06-10T09:49:04;21.70;99.90
50162;DHT22;36061;48.116;11.612;2023-06-10T09:51:32;21.70;99.90
50162;DHT22;36061;48.116;11.612;2023-06-10T09:54:02;21.80;99.90
50162;DHT22;36061;48.116;11.612;2023-06-10T09:56:33;21.80;99.90
50162;DHT22;36061;48.116;11.612;2023-06-10T09:59:01;21.80;99.90
50162;DHT22;36061;48.116;11.612;2023-06-10T10:01:30;21.80;99.90
50162;DHT22;36061;48.116;11.612;2023-06-10T10:04:00;21.90;99.90
50162;DHT22;36061;48.116;11.612;2023-06-10T10:06:27;21.90;99.90
50162;DHT22;36061;48.116;11.612;2023-06-10T10:08:56;22.00;99.90
50162;DHT22;36061;48.116;11.612;2023-06-10T10:11:24;22.00;99.90
50162;DHT22;36061;48.116;11.612;2023-06-10T10:13:52;22.00;99.90
50162;DHT22;36061;48.116;11.612;2023-06-10T10:16:21;22.10;99.90
50162;DHT22;36061;48.116;11.612;2023-06-10T10:18:53;22.10;99.90
50162;DHT22;36061;48.116;11.612;2023-06-10T10:21:27;22.20;99.90
50162;DHT22;36061;48.116;11.612;2023-06-10T10:24:03;22.20;99.90
50162;DHT22;36061;48.116;11.612;2023-06-10T10:26:34;22.20;99.90
50162;DHT22;36061;48.116;11.612;2023-06-10T10:29:10;22.20;99.90
50162;DHT22;36061;48.116;11.612;2023-06-10T10:31:39;22.20;99.90
50162;DHT22;36061;48.116;11.612;2023-06-10T10:34:13;22.20;99.90
50162;DHT22;36061;48.116;11.612;2023-06-10T10:36:44;22.30;99.90
50162;DHT22;36061;48.116;11.612;2023-06-10T10:39:14;22.30;99.90
50162;DHT22;36061;48.116;11.612;2023-06-10T10:41:42;22.30;99.90
50162;DHT22;36061;48.116;11.612;2023-06-10T10:44:09;22.40;99.90
50162;DHT22;36061;48.116;11.612;2023-06-10T10:46:44;22.40;99.90
50162;DHT22;36061;48.116;11.612;2023-06-10T10:49:16;22.40;99.90
50162;DHT22;36061;48.116;11.612;2023-06-10T10:52:00;22.50;99.90
50162;DHT22;36061;48.116;11.612;2023-06-10T10:54:31;22.50;99.90
50162;DHT22;36061;48.116;11.612;2023-06-10T10:57:16;22.40;99.90
50162;DHT22;36061;48.116;11.612;2023-06-10T10:59:45;22.40;99.90
50162;DHT22;36061;48.116;11.612;2023-06-10T11:02:16;22.40;99.90
50162;DHT22;36061;48.116;11.612;2023-06-10T11:04:47;22.40;99.90
50162;DHT22;36061;48.116;11.612;2023-06-10T11:07:20;22.40;99.90
50162;DHT22;36061;48.116;11.612;2023-06-10T11:10:01;22.40;99.90
50162;DHT22;36061;48.116;11.612;2023-06-10T11:12:51;22.30;99.90
50162;DHT22;36061;48.116;11.612;2023-06-10T11:15:21;22.20;99.90
50162;DHT22;36061;48.116;11.612;2023-06-10T11:18:13;22.20;99.90
50162;DHT22;36061;48.116;11.612;2023-06-10T11:20:45;22.20;99.90
50162;DHT22;36061;48.116;11.612;2023-06-10T11:23:30;22.20;99.90
50162;DHT22;36061;48.116;11.612;2023-06-10T11:26:13;22.20;99.90
50162;DHT22;36061;48.116;11.612;2023-06-10T11:28:41;22.20;99.90
50162;DHT22;36061;48.116;11.612;2023-06-10T11:31:10;22.10;99.90
50162;DHT22;36061;48.116;11.612;2023-06-10T11:33:46;22.20;99.90
50162;DHT22;36061;48.116;11.612;2023-06-10T11:36:14;22.20;99.90
50162;DHT22;36061;48.116;11.612;2023-06-10T11:38:43;22.20;99.90
50162;DHT22;36061;48.116;11.612;2023-06-10T11:41:11;22.20;99.90
50162;DHT22;36061;48.116;11.612;2023-06-10T11:43:42;22.30;99.90
50162;DHT22;36061;48.116;11.612;2023-06-10T11:46:09;22.30;99.90
50162;DHT22;36061;48.116;11.612;2023-06-10T11:48:36;22.40;99.90
50162;DHT22;36061;48.116;11.612;2023-06-10T11:51:06;22.50;99.90
50162;DHT22;36061;48.116;11.612;2023-06-10T11:53:33;22.60;99.90
50162;DHT22;36061;48.116;11.612;2023-06-10T11:56:02;22.60;99.90
50162;DHT22;36061;48.116;11.612;2023-06-10T11:58:29;22.70;99.90
50162;DHT22;36061;48.116;11.612;2023-06-10T12:00:57;22.70;99.90
50162;DHT22;36061;48.116;11.612;2023-06-10T12:03:24;22.70;99.90
50162;DHT22;36061;48.116;11.612;2023-06-10T12:05:59;22.70;99.90
50162;DHT22;36061;48.116;11.612;2023-06-10T12:08:27;22.80;99.90
50162;DHT22;36061;48.116;11.612;2023-06-10T12:10:55;22.80;99.90
50162;DHT22;36061;48.116;11.612;2023-06-10T12:13:25;22.80;99.90
50162;DHT22;36061;48.116;11.612;2023-06-10T12:15:53;22.80;99.90
50162;DHT22;36061;48.116;11.612;2023-06-10T12:18:22;22.80;99.90
50162;DHT22;36061;48.116;11.612;2023-06-10T12:20:49;22.80;99.90
50162;DHT22;36061;48.116;11.612;2023-06-10T12:23:18;22.80;99.90
50162;DHT22;36061;48.116;11.612;2023-06-10T12:25:52;22.80;99.90
50162;DHT22;36061;48.116;11.612;2023-06-10T12:28:21;22.80;99.90
50162;DHT22;36061;48.116;11.612;2023-06-10T12:30:51;22.90;99.90
50162;DHT22;36061;48.116;11.612;2023-06-10T12:33:18;22.90;99.90
50162;DHT22;36061;48.116;11.612;2023-06-10T12:35:50;22.90;99.90
50162;DHT22;36061;48.116;11.612;2023-06-10T12:38:21;22.90;99.90
50162;DHT22;36061;48.116;11.612;2023-06-10T12:40:50;22.90;99.90
50162;DHT22;36061;48.116;11.612;2023-06-10T12:43:21;22.80;99.90
50162;DHT22;36061;48.116;11.612;2023-06-10T12:45:50;22.80;99.90
50162;DHT22;36061;48.116;11.612;2023-06-10T12:48:19;22.70;99.90
50162;DHT22;36061;48.116;11.612;2023-06-10T12:50:51;22.70;99.90
50162;DHT22;36061;48.116;11.612;2023-06-10T12:53:18;22.60;99.90
50162;DHT22;36061;48.116;11.612;2023-06-10T12:55:46;22.70;99.90
50162;DHT22;36061;48.116;11.612;2023-06-10T12:58:14;22.70;99.90
50162;DHT22;36061;48.116;11.612;2023-06-10T13:00:41;22.80;99.90
50162;DHT22;36061;48.116;11.612;2023-06-10T13:03:10;22.90;99.90
50162;DHT22;36061;48.116;11.612;2023-06-10T13:05:38;22.90;99.90
50162;DHT22;36061;48.116;11.612;2023-06-10T13:08:05;23.00;99.90
50162;DHT22;36061;48.116;11.612;2023-06-10T13:10:33;23.10;99.90
50162;DHT22;36061;48.116;11.612;2023-06-10T13:13:00;23.10;99.90
50162;DHT22;36061;48.116;11.612;2023-06-10T13:15:28;23.10;99.90
50162;DHT22;36061;48.116;11.612;2023-06-10T13:17:55;23.00;99.90
50162;DHT22;36061;48.116;11.612;2023-06-10T13:20:24;23.00;99.90
50162;DHT22;36061;48.116;11.612;2023-06-10T13:22:52;22.90;99.90
50162;DHT22;36061;48.116;11.612;2023-06-10T13:25:19;22.90;99.90
50162;DHT22;36061;48.116;11.612;2023-06-10T13:27:46;22.90;99.90
50162;DHT22;36061;48.116;11.612;2023-06-10T13:30:13;22.80;99.90
50162;DHT22;36061;48.116;11.612;2023-06-10T13:32:41;22.80;99.90
50162;DHT22;36061;48.116;11.612;2023-06-10T13:35:08;22.80;99.90
50162;DHT22;36061;48.116;11.612;2023-06-10T13:37:37;22.80;99.90
50162;DHT22;36061;48.116;11.612;2023-06-10T13:40:05;22.80;99.90
50162;DHT22;36061;48.116;11.612;2023-06-10T13:42:33;22.90;99.90
50162;DHT22;36061;48.116;11.612;2023-06-10T13:45:01;22.90;99.90
50162;DHT22;36061;48.116;11.612;2023-06-10T13:47:30;22.90;99.90
50162;DHT22;36061;48.116;11.612;2023-06-10T13:49:57;23.00;99.90
50162;DHT22;36061;48.116;11.612;2023-06-10T13:52:24;22.90;99.90
50162;DHT22;36061;48.116;11.612;2023-06-10T13:54:53;22.90;99.90
50162;DHT22;36061;48.116;11.612;2023-06-10T13:57:20;22.90;99.90
50162;DHT22;36061;48.116;11.612;2023-06-10T13:59:47;22.90;99.90
50162;DHT22;36061;48.116;11.612;2023-06-10T14:02:15;22.90;99.90
50162;DHT22;36061;48.116;11.612;2023-06-10T14:04:42;22.80;99.90
50162;DHT22;36061;48.116;11.612;2023-06-10T14:07:09;22.90;99.90
50162;DHT22;36061;48.116;11.612;2023-06-10T14:09:37;22.80;99.90
50162;DHT22;36061;48.116;11.612;2023-06-10T14:12:07;22.80;99.90
50162;DHT22;36061;48.116;11.612;2023-06-10T14:14:35;22.80;99.90
50162;DHT22;36061;48.116;11.612;2023-06-10T14:17:02;22.80;99.90
50162;DHT22;36061;48.116;11.612;2023-06-10T14:19:30;22.80;99.90
50162;DHT22;36061;48.116;11.612;2023-06-10T14:21:58;22.80;99.90
50162;DHT22;36061;48.116;11.612;2023-06-10T14:24:25;22.80;99.90
50162;DHT22;36061;48.116;11.612;2023-06-10T14:26:52;22.80;99.90
50162;DHT22;36061;48.116;11.612;2023-06-10T14:29:21;22.90;99.90
50162;DHT22;36061;48.116;11.612;2023-06-10T14:31:48;22.90;99.90
50162;DHT22;36061;48.116;11.612;2023-06-10T14:34:15;22.90;99.90
50162;DHT22;36061;48.116;11.612;2023-06-10T14:36:43;22.80;99.90
50162;DHT22;36061;48.116;11.612;2023-06-10T14:39:11;22.80;99.90
50162;DHT22;36061;48.116;11.612;2023-06-10T14:41:38;22.80;99.90
50162;DHT22;36061;48.116;11.612;2023-06-10T14:44:05;22.90;99.90
50162;DHT22;36061;48.116;11.612;2023-06-10T14:46:33;22.80;99.90
50162;DHT22;36061;48.116;11.612;2023-06-10T14:49:01;22.90;99.90
50162;DHT22;36061;48.116;11.612;2023-06-10T14:51:28;22.90;99.90
50162;DHT22;36061;48.116;11.612;2023-06-10T14:53:55;22.90;99.90
50162;DHT22;36061;48.116;11.612;2023-06-10T14:56:24;22.90;99.90
50162;DHT22;36061;48.116;11.612;2023-06-10T14:58:51;23.00;99.90
50162;DHT22;36061;48.116;11.612;2023-06-10T15:01:19;23.00;99.90
50162;DHT22;36061;48.116;11.612;2023-06-10T15:03:48;23.00;99.90
50162;DHT22;36061;48.116;11.612;2023-06-10T15:06:15;23.00;99.90
50162;DHT22;36061;48.116;11.612;2023-06-10T15:08:46;23.00;99.90
50162;DHT22;36061;48.116;11.612;2023-06-10T15:11:15;23.10;99.90
50162;DHT22;36061;48.116;11.612;2023-06-10T15:13:42;23.10;99.90
50162;DHT22;36061;48.116;11.612;2023-06-10T15:16:09;23.20;99.90
50162;DHT22;36061;48.116;11.612;2023-06-10T15:18:37;23.20;99.90
50162;DHT22;36061;48.116;11.612;2023-06-10T15:21:06;23.20;99.90
50162;DHT22;36061;48.116;11.612;2023-06-10T15:23:33;23.20;99.90
50162;DHT22;36061;48.116;11.612;2023-06-10T15:26:01;23.20;99.90